Fort Saskatchewan, Canada
Current Conditions -  °F | °C
As of 6:38 PM on Tuesday 27 Jan 2015 (Local Time) from CYED Reporting Station
Overcast Overcast  
Wind Chill: 26°   Ceiling: 200
Heat Index: 32°   Visibility: 1.2mi
Dew Point: 30°   Wind: 6mph
Humidity: 93%   Direction: 40°NE
Pressure: 29.81"   Gusts: NA
Location:  53.71°N, 113.21°W
Report Text: CYED 280138Z AUTO 04005KT 1 1/4SM OVC002 OVC006 00/M01 A2981
Loading
Personal Weather Stations






























Interactive Weather Map New forecast layout! Learn more

10-Day Weather Forecast

Advertisements
Track Severe Weather on mobile